Latest Coastal Weather Observations for Cato Island

IDQ60701

Issued at 6:22 pm EST Thursday 29 September 2016 (issued every 10 minutes, with the page automatically refreshed every 10 minutes)

About coastal observations | Map of coastal stations | Coastal observations for QLD | Marine services | Other Formats
Station Details ID: 200601 Name: CATO ISLAND Lat: -23.25 Lon: 155.54 Height: 6.3 m
Data from the previous 72 hours. | See also: Recent months for locations in Queensland
Date/Time
EST
Temp
°C
Wind Pressure Rain since
9am
mm
Weather Cloud Vis
km
Sea
Height
m
Swell
Dir  Spd
kts
Gust
kts
hPa Trend Height
m
Period
s
Dir
29/06:00pm 22.8 N 11 15 1011.4 - - - - - - - - -
29/05:30pm 23.0 N 10 14 1011.0 - - - - - - - - -
29/05:00pm 22.9 N 13 15 1010.6 - - - - - - - - -
29/04:30pm 23.7 N 13 16 1010.6 - - - - - - - - -
29/04:00pm 23.8 N 13 16 1010.2 - - - - - - - - -
29/03:30pm 24.8 N 12 15 1010.1 - - - - - - - - -
29/03:00pm 24.7 N 12 14 1010.3 - - - - - - - - -
29/02:30pm 25.2 N 12 16 1010.0 - - - - - - - - -
29/02:00pm 25.2 N 11 14 1010.2 - - - - - - - - -
29/01:30pm 25.2 N 11 13 1010.5 - - - - - - - - -
29/01:00pm 24.9 N 11 14 1010.7 - - - - - - - - -
29/12:30pm 25.7 N 12 15 1010.9 - - - - - - - - -
29/12:00pm 25.4 N 10 13 1011.4 - - - - - - - - -
29/11:30am 25.0 NNE 12 15 1011.4 - - - - - - - - -
29/11:00am 25.4 N 11 13 1011.8 - - - - - - - - -
29/10:30am 24.8 N 11 14 1012.8 - - - - - - - - -
29/10:00am 25.1 N 11 13 1012.4 - - - - - - - - -
29/09:30am 24.6 NNE 11 13 1012.5 - - - - - - - - -
29/09:00am 24.6 NNE 9 11 1013.0 - - - - - - - - -
29/08:30am 23.6 NNE 10 13 1013.1 - - - - - - - - -
29/08:00am 23.9 N 8 10 1013.6 - - - - - - - - -
29/07:30am 23.7 NNE 7 9 1013.4 - - - - - - - - -
29/07:00am 23.2 NNE 6 8 1013.1 - - - - - - - - -
29/06:30am 23.0 ENE 6 9 1012.8 - - - - - - - - -
29/06:00am 22.5 NNE 7 9 1012.3 - - - - - - - - -
29/05:30am 21.2 NE 8 11 1012.1 - - - - - - - - -
29/05:00am 21.4 ENE 8 11 1011.8 - - - - - - - - -
29/04:30am 21.0 NE 7 9 1011.7 - - - - - - - - -
29/04:00am 20.7 NNE 6 8 1011.6 - - - - - - - - -
29/03:30am 20.9 NNE 5 8 1011.8 - - - - - - - - -
29/03:00am 21.0 NE 8 10 1011.3 - - - - - - - - -
29/02:30am 20.7 NE 5 6 1011.6 - - - - - - - - -
29/02:00am 21.1 NE 4 5 1011.8 - - - - - - - - -
29/01:30am 21.4 E 3 4 1012.1 - - - - - - - - -
29/01:00am 22.2 SE 5 7 1012.2 - - - - - - - - -
29/12:30am 22.2 ESE 5 7 1012.2 - - - - - - - - -
29/12:00am 22.3 E 7 8 1012.3 - - - - - - - - -
 
Date/Time
EST
Temp
°C
Wind Pressure Rain since
9am
mm
Weather Cloud Vis
km
Sea
Height
m
Swell
Dir  Spd
kts
Gust
kts
hPa Trend Height
m
Period
s
Dir
28/11:30pm 22.3 ESE 5 6 1012.7 - - - - - - - - -
28/11:00pm 22.0 E 4 7 1013.0 - - - - - - - - -
28/10:30pm 22.7 SE 7 9 1012.9 - - - - - - - - -
28/10:00pm 22.7 SSE 6 8 1013.2 - - - - - - - - -
28/09:30pm 22.9 SSE 7 9 1013.6 - - - - - - - - -
28/09:00pm 23.1 SE 8 10 1013.5 - - - - - - - - -
28/08:30pm 23.0 SE 7 9 1013.5 - - - - - - - - -
28/08:00pm 23.1 SE 7 10 1013.3 - - - - - - - - -
28/07:30pm 23.2 SE 8 9 1012.9 - - - - - - - - -
28/07:00pm 23.2 SSE 8 10 1012.8 - - - - - - - - -
28/06:30pm 23.4 SE 9 10 1012.2 - - - - - - - - -
28/06:00pm 23.3 SE 8 10 1011.9 - - - - - - - - -
28/05:30pm 23.5 SSE 8 10 1011.7 - - - - - - - - -
28/05:00pm 23.6 SE 8 10 1011.7 - - - - - - - - -
28/04:30pm 23.9 SSE 9 11 1011.8 - - - - - - - - -
28/04:00pm 24.1 SSE 8 11 1011.8 - - - - - - - - -
28/03:30pm 24.4 SSE 8 11 1011.6 - - - - - - - - -
28/03:00pm 24.4 SSE 9 11 1011.7 - - - - - - - - -
28/02:30pm 24.6 SSE 10 12 1011.7 - - - - - - - - -
28/02:00pm 24.7 SSE 9 10 1012.0 - - - - - - - - -
28/01:30pm 25.0 S 9 11 1012.1 - - - - - - - - -
28/01:00pm 25.0 S 10 12 1012.4 - - - - - - - - -
28/12:30pm 24.8 S 11 14 1012.8 - - - - - - - - -
28/12:00pm 25.1 S 11 14 1013.1 - - - - - - - - -
28/11:30am 25.1 S 9 11 1013.3 - - - - - - - - -
28/11:00am 25.0 S 10 13 1013.8 - - - - - - - - -
28/10:30am 25.1 S 11 13 1014.1 - - - - - - - - -
28/10:00am 25.1 SSW 9 11 1014.2 - - - - - - - - -
28/09:30am 25.5 SSW 8 11 1014.5 - - - - - - - - -
28/09:00am 25.1 SW 9 11 1014.5 - - - - - - - - -
28/08:30am 24.7 SSW 11 12 1014.5 - - - - - - - - -
28/08:00am 24.2 SSW 11 14 1014.4 - - - - - - - - -
28/07:30am 23.6 SSW 12 14 1014.3 - - - - - - - - -
28/07:00am 23.2 SSW 12 14 1013.9 - - - - - - - - -
28/06:30am 22.7 SSW 11 14 1013.6 - - - - - - - - -
28/06:00am 22.4 SSW 12 15 1013.3 - - - - - - - - -
28/05:30am 22.1 SSW 11 14 1013.1 - - - - - - - - -
28/05:00am 22.0 SSW 12 14 1012.5 - - - - - - - - -
28/04:30am 21.9 SSW 13 16 1012.3 - - - - - - - - -
28/04:00am 22.0 S 13 17 1012.0 - - - - - - - - -
28/03:30am 21.9 S 13 15 1011.8 - - - - - - - - -
28/03:00am 22.0 SSW 12 14 1011.7 - - - - - - - - -
28/02:30am 21.8 S 13 16 1011.9 - - - - - - - - -
28/02:00am 21.7 S 11 15 1012.2 - - - - - - - - -
28/01:30am 21.7 S 12 15 1012.3 - - - - - - - - -
28/01:00am 21.8 S 13 15 1012.2 - - - - - - - - -
28/12:30am 21.7 S 13 16 1012.6 - - - - - - - - -
28/12:00am 21.8 S 15 19 1012.7 - - - - - - - - -
 
Date/Time
EST
Temp
°C
Wind Pressure Rain since
9am
mm
Weather Cloud Vis
km
Sea
Height
m
Swell
Dir  Spd
kts
Gust
kts
hPa Trend Height
m
Period
s
Dir
27/11:30pm 21.8 S 13 16 1012.8 - - - - - - - - -
27/11:00pm 21.8 S 13 16 1013.3 - - - - - - - - -
27/10:30pm 21.8 S 14 17 1013.4 - - - - - - - - -
27/10:00pm 21.9 S 15 19 1013.4 - - - - - - - - -
27/09:30pm 21.8 S 15 17 1013.4 - - - - - - - - -
27/09:00pm 21.9 S 15 18 1013.4 - - - - - - - - -
27/08:30pm 22.1 SSW 16 19 1013.3 - - - - - - - - -
27/08:00pm 22.0 SSW 16 18 1013.1 - - - - - - - - -
27/07:30pm 22.3 SSW 14 17 1013.0 - - - - - - - - -
27/07:00pm 22.1 SSW 14 17 1012.6 - - - - - - - - -
27/06:30pm 22.2 SSW 15 18 1012.4 - - - - - - - - -
27/06:00pm 22.3 SSW 16 18 1012.3 - - - - - - - - -
27/05:30pm 22.3 SSW 16 20 1011.9 - - - - - - - - -
27/05:00pm 22.6 SSW 18 21 1012.0 - - - - - - - - -
27/04:30pm 23.2 SW 15 18 1011.1 - - - - - - - - -
27/04:00pm 23.8 SW 15 18 1011.1 - - - - - - - - -
27/03:30pm 24.2 SSW 15 19 1011.0 - - - - - - - - -
27/03:00pm 24.7 SW 16 19 1011.0 - - - - - - - - -
27/02:30pm 25.3 SW 15 17 1011.0 - - - - - - - - -
27/02:00pm 25.6 SW 16 19 1011.4 - - - - - - - - -
27/01:30pm 26.3 WSW 14 17 1011.5 - - - - - - - - -
27/01:00pm 26.4 W 13 17 1011.9 - - - - - - - - -
27/12:30pm 26.5 WSW 14 17 1012.4 - - - - - - - - -
27/12:00pm 26.4 WSW 14 17 1012.6 - - - - - - - - -
27/11:30am 26.6 W 12 15 1012.8 - - - - - - - - -
27/11:00am 26.8 W 12 15 1013.5 - - - - - - - - -
27/10:30am 26.3 W 11 14 1013.7 - - - - - - - - -
27/10:00am 26.2 W 10 12 1013.8 - - - - - - - - -
27/09:30am 25.6 W 10 13 1014.2 - - - - - - - - -
27/09:00am 25.1 W 10 12 1014.2 - - - - - - - - -
27/08:30am 25.3 W 10 12 1014.2 - - - - - - - - -
27/08:00am 24.5 W 10 11 1014.2 - - - - - - - - -
27/07:30am 24.0 W 9 11 1013.9 - - - - - - - - -
27/07:00am 23.4 W 10 13 1013.7 - - - - - - - - -
27/06:30am 22.6 W 12 14 1013.2 - - - - - - - - -
27/06:00am 22.0 W 11 13 1012.8 - - - - - - - - -
27/05:30am 21.1 W 10 12 1012.5 - - - - - - - - -
27/05:00am 21.4 NW 8 9 1011.9 - - - - - - - - -
27/04:30am 21.5 NW 7 8 1011.5 - - - - - - - - -
27/04:00am 21.5 N 6 9 1011.3 - - - - - - - - -
27/03:30am 21.0 NNW 5 7 1011.2 - - - - - - - - -
27/03:00am 20.3 W 4 7 1011.4 - - - - - - - - -
27/02:30am 20.7 NNW 4 5 1011.3 - - - - - - - - -
27/02:00am 20.7 SSW 2 3 1011.7 - - - - - - - - -
27/01:30am 21.1 SSW 4 5 1012.3 - - - - - - - - -
27/01:00am 20.9 SW 4 6 1012.5 - - - - - - - - -
27/12:30am 21.2 WSW 4 6 1012.7 - - - - - - - - -
27/12:00am 21.0 SW 3 4 1012.9 - - - - - - - - -
 
Date/Time
EST
Temp
°C
Wind Pressure Rain since
9am
mm
Weather Cloud Vis
km
Sea
Height
m
Swell
Dir  Spd
kts
Gust
kts
hPa Trend Height
m
Period
s
Dir
26/11:30pm 21.4 SSW 1 3 1013.1 - - - - - - - - -
26/11:00pm 21.3 CALM 0 0 1012.9 - - - - - - - - -
26/10:30pm 21.4 CALM 0 0 1012.9 - - - - - - - - -
26/10:00pm 21.8 SSW 3 5 1012.8 - - - - - - - - -
26/09:30pm 22.1 SE 4 5 1013.0 - - - - - - - - -
26/09:00pm 21.8 S 3 5 1013.0 - - - - - - - - -
26/08:30pm 22.2 S 4 5 1012.9 - - - - - - - - -
26/08:00pm 22.3 SE 4 5 1012.7 - - - - - - - - -
26/07:30pm 22.4 SE 4 5 1012.1 - - - - - - - - -
26/07:00pm 22.7 SSE 4 6 1011.9 - - - - - - - - -
26/06:30pm 22.8 S 7 9 1011.5 - - - - - - - - -

Other Formats:

Comma delimited format used in spreadsheet applications
http://www.bom.gov.au/fwo/IDQ60701/IDQ60701.94394.axf

JavaScript Object Notation format (JSON) in row-major order
http://www.bom.gov.au/fwo/IDQ60701/IDQ60701.94394.json